Time;durP1;ratioP1;P1;durP2;ratioP2;P2;SDS_P1;SDS_P2;PMS_P1;PMS_P2;Temp;Humidity;BMP_temperature;BMP_pressure;BME280_temperature;BME280_humidity;BME280_pressure;Samples;Min_cycle;Max_cycle;Signal;HPM_P1;HPM_P2
2022/02/08 00:02:02;;;;;;;6.65;4.83;;;;;;;2.86;73.00;98367.00;1740839;82;20966;-41
2022/02/08 00:04:29;;;;;;;7.55;5.05;;;;;;;2.83;73.11;98374.91;1743147;82;21555;-41
2022/02/08 00:06:57;;;;;;;6.10;4.65;;;;;;;2.83;73.29;98374.91;1710459;82;21937;-41
2022/02/08 00:09:25;;;;;;;8.18;4.87;;;;;;;2.84;73.37;98378.61;1742553;81;21776;-41
2022/02/08 00:11:51;;;;;;;7.72;4.87;;;;;;;2.88;73.34;98377.37;1742459;82;21029;-41
2022/02/08 00:14:18;;;;;;;7.15;4.10;;;;;;;2.53;73.29;98330.92;1742971;82;21024;-41
2022/02/08 00:16:45;;;;;;;5.87;4.30;;;;;;;2.92;73.28;98386.30;1742868;82;21084;-41
2022/02/08 00:19:11;;;;;;;5.75;4.03;;;;;;;2.96;73.22;98396.02;1742597;82;21116;-41
2022/02/08 00:21:38;;;;;;;5.28;3.70;;;;;;;2.99;73.05;98391.35;1742899;82;20973;-41
2022/02/08 00:24:06;;;;;;;4.62;3.40;;;;;;;3.01;72.83;98394.46;1713479;82;21501;-41
2022/02/08 00:26:32;;;;;;;5.80;3.40;;;;;;;2.99;72.68;98395.92;1714864;82;20973;-41
2022/02/08 00:28:59;;;;;;;4.33;3.27;;;;;;;2.97;72.67;98396.25;1730683;82;21471;-41
2022/02/08 00:31:26;;;;;;;5.95;3.17;;;;;;;2.97;72.73;98394.91;1712606;82;21119;-41
2022/02/08 00:33:52;;;;;;;5.78;3.30;;;;;;;2.97;72.68;98393.56;1725224;82;20965;-41
2022/02/08 00:36:19;;;;;;;5.95;3.00;;;;;;;2.97;72.63;98396.80;1742821;82;21057;-41
2022/02/08 00:38:48;;;;;;;4.55;2.98;;;;;;;2.92;72.62;98397.80;1742396;81;20958;-41
2022/02/08 00:41:15;;;;;;;4.15;2.85;;;;;;;2.91;72.84;98407.48;1729752;81;20937;-41
2022/02/08 00:43:52;;;;;;;3.72;2.95;;;;;;;2.93;72.89;98403.38;1717268;83;21164;-41
2022/02/08 00:46:20;;;;;;;3.85;2.60;;;;;;;2.94;72.96;98400.94;1751892;81;21074;-41
2022/02/08 00:48:53;;;;;;;4.70;2.80;;;;;;;2.93;72.88;98398.03;1752246;81;21003;-41
2022/02/08 00:51:11;;;;;;;4.25;2.65;;;;;;;2.95;72.99;98400.38;1751134;81;21024;-41
2022/02/08 00:53:38;;;;;;;3.77;2.80;;;;;;;2.96;72.81;98401.92;1752998;81;21027;-41
2022/02/08 00:56:06;;;;;;;3.98;2.87;;;;;;;2.93;72.55;98410.08;1752876;81;21201;-41
2022/02/08 00:58:33;;;;;;;3.90;2.92;;;;;;;2.89;72.55;98411.07;1753046;81;21018;-41
2022/02/08 01:01:00;;;;;;;3.70;2.70;;;;;;;2.86;72.55;98412.50;1754129;80;21071;-41
2022/02/08 01:03:26;;;;;;;4.92;2.67;;;;;;;2.84;72.49;98412.62;1753193;81;21518;-41
2022/02/08 01:06:03;;;;;;;5.28;2.92;;;;;;;2.84;72.58;98418.76;1793689;79;21510;-41
2022/02/08 01:08:28;;;;;;;5.60;2.75;;;;;;;2.88;72.63;98423.67;1779245;78;21141;-41
2022/02/08 01:10:52;;;;;;;4.30;2.67;;;;;;;2.92;72.55;98427.25;1778625;80;21011;-41
2022/02/08 01:13:20;;;;;;;;;;;;;;;2.94;72.51;98425.03;1786752;80;21007;-41
2022/02/08 01:15:47;;;;;;;3.12;2.27;;;;;;;2.95;72.52;98431.92;1784046;80;20170;-41
2022/02/08 01:18:14;;;;;;;3.72;2.98;;;;;;;2.88;72.74;98441.07;1782994;80;21083;-41
2022/02/08 01:20:43;;;;;;;3.08;2.77;;;;;;;2.93;72.83;98444.09;1784062;80;20987;-41
2022/02/08 01:23:10;;;;;;;3.60;2.47;;;;;;;2.95;72.74;98452.00;1783924;79;20944;-41
2022/02/08 01:25:46;;;;;;;3.37;2.72;;;;;;;2.98;72.75;98447.34;1783946;80;20960;-41
2022/02/08 01:29:00;;;;;;;4.15;2.75;;;;;;;2.96;72.63;98450.11;1782777;80;21051;-41
2022/02/08 01:33:37;;;;;;;4.17;2.80;;;;;;;2.90;72.89;98446.89;1750272;80;21086;-41
2022/02/08 01:36:08;;;;;;;3.12;2.55;;;;;;;2.90;72.87;98457.59;1759457;80;20956;-41
2022/02/08 01:38:20;;;;;;;3.02;2.25;;;;;;;2.90;72.90;98457.59;1748877;80;21007;-41
2022/02/08 01:46:25;;;;;;;2.50;1.90;;;;;;;2.92;72.68;98467.40;1740326;81;21136;-41
2022/02/08 01:48:50;;;;;;;4.50;3.20;;;;;;;2.90;72.58;98468.30;1758501;81;21646;-41
2022/02/08 01:51:13;;;;;;;2.83;2.40;;;;;;;2.88;72.61;98467.84;1739002;81;21793;-41
2022/02/08 01:53:39;;;;;;;5.67;2.95;;;;;;;2.89;72.59;98459.25;1795095;79;20989;-41
2022/02/08 01:56:06;;;;;;;3.80;2.47;;;;;;;2.89;72.46;98470.75;1797227;79;20998;-41
2022/02/08 01:58:33;;;;;;;3.65;2.50;;;;;;;2.85;72.38;98463.71;1797515;79;21126;-41
2022/02/08 02:01:08;;;;;;;5.37;2.65;;;;;;;2.84;72.40;98465.60;1790858;79;21045;-41
2022/02/08 02:03:36;;;;;;;3.67;2.25;;;;;;;2.86;72.40;98468.72;1791375;80;20927;-41
2022/02/08 02:06:03;;;;;;;3.12;2.25;;;;;;;2.89;72.36;98477.99;1791350;80;21009;-41
2022/02/08 02:08:30;;;;;;;3.42;2.55;;;;;;;2.89;72.39;98480.12;1791063;80;21018;-41
2022/02/08 02:10:57;;;;;;;2.98;2.22;;;;;;;2.87;72.21;98478.86;1791229;80;21216;-41
2022/02/08 02:13:42;;;;;;;3.52;2.55;;;;;;;2.83;72.28;98485.45;1791256;79;20989;-41
2022/02/08 02:15:54;;;;;;;2.98;2.20;;;;;;;2.84;72.30;98492.37;1770274;80;21012;-41
2022/02/08 02:18:20;;;;;;;3.10;2.20;;;;;;;2.82;72.35;98497.25;1791491;80;21046;-41
2022/02/08 02:20:48;;;;;;;3.30;1.90;;;;;;;2.82;72.41;98503.95;1791362;80;21698;-41
2022/02/08 02:23:14;;;;;;;4.50;2.37;;;;;;;2.86;72.39;98508.86;1791424;80;21071;-41
2022/02/08 02:25:41;;;;;;;2.98;2.20;;;;;;;2.89;72.32;98509.56;1788034;79;21025;-41
2022/02/08 02:28:08;;;;;;;3.87;2.30;;;;;;;2.92;72.36;98520.94;1738636;81;20966;-41
2022/02/08 02:30:34;;;;;;;3.25;1.95;;;;;;;2.95;72.26;98515.50;1759961;81;20961;-41
2022/02/08 02:33:05;;;;;;;3.00;2.25;;;;;;;2.97;72.21;98520.73;1762334;80;21485;-41
2022/02/08 02:35:32;;;;;;;4.62;2.30;;;;;;;2.97;72.23;98523.97;1791777;80;21744;-41
2022/02/08 02:38:05;;;;;;;3.40;2.37;;;;;;;2.98;72.31;98527.66;1791181;79;20990;-41
2022/02/08 02:40:33;;;;;;;2.65;2.20;;;;;;;3.01;72.09;98530.22;1787594;80;21045;-41
2022/02/08 02:43:00;;;;;;;4.03;2.60;;;;;;;3.00;72.00;98526.77;1784303;79;21522;-41
2022/02/08 02:45:28;;;;;;;3.80;2.45;;;;;;;3.01;71.94;98535.03;1784815;80;21459;-41
2022/02/08 02:47:56;;;;;;;3.33;2.27;;;;;;;3.01;71.92;98535.58;1784636;80;21132;-41
2022/02/08 02:50:25;;;;;;;3.20;2.27;;;;;;;2.99;71.85;98542.63;1784512;80;21507;-41
2022/02/08 02:52:52;;;;;;;2.95;2.27;;;;;;;2.98;71.83;98550.42;1784646;80;21563;-41
2022/02/08 02:55:19;;;;;;;4.83;2.02;;;;;;;2.94;71.82;98553.53;1784671;80;21005;-41
2022/02/08 02:57:49;;;;;;;3.83;1.95;;;;;;;2.95;71.85;98553.73;1784702;80;21015;-41
2022/02/08 03:00:32;;;;;;;;;;;;;;;2.94;71.73;98555.42;1799819;79;21730;-41
2022/02/08 03:02:50;;;;;;;4.80;2.10;;;;;;;2.89;71.76;98555.63;1813761;79;20165;-41
2022/02/08 03:05:39;;;;;;;2.85;2.00;;;;;;;2.80;72.03;98561.06;1815958;79;20968;-41
2022/02/08 03:18:55;;;;;;;2.70;1.80;;;;;;;2.75;71.78;98581.33;1784681;80;21011;-42
2022/02/08 03:21:22;;;;;;;4.72;2.12;;;;;;;2.72;71.87;98584.64;1784504;80;21541;-41
2022/02/08 03:23:49;;;;;;;3.15;1.98;;;;;;;2.74;71.83;98591.80;1808685;79;20977;-41
2022/02/08 03:26:16;;;;;;;3.65;1.80;;;;;;;2.77;71.84;98595.70;1816484;79;21799;-41
2022/02/08 03:28:49;;;;;;;3.62;1.65;;;;;;;2.78;71.67;98602.08;1814888;79;20917;-41
2022/02/08 03:31:18;;;;;;;3.70;1.82;;;;;;;2.77;71.62;98609.08;1815994;79;20945;-41
2022/02/08 03:33:46;;;;;;;4.95;1.92;;;;;;;2.72;71.62;98610.06;1813179;79;21071;-41
2022/02/08 03:36:16;;;;;;;4.15;1.80;;;;;;;2.72;71.61;98605.26;1784946;80;21036;-41
2022/02/08 03:38:47;;;;;;;2.87;1.90;;;;;;;2.71;71.60;98613.08;1810086;79;22039;-41
2022/02/08 03:41:12;;;;;;;3.23;1.77;;;;;;;2.68;71.53;98619.86;1816874;78;21467;-41
2022/02/08 03:43:45;;;;;;;2.95;1.85;;;;;;;2.66;71.40;98621.30;1804636;79;21029;-41
2022/02/08 03:46:14;;;;;;;3.02;1.85;;;;;;;2.64;71.43;98629.64;1799405;79;21567;-41
2022/02/08 03:48:40;;;;;;;2.50;1.80;;;;;;;2.63;71.39;98638.77;1799219;79;21072;-41
2022/02/08 03:51:16;;;;;;;3.52;1.90;;;;;;;2.61;71.48;98642.34;1797655;79;21203;-41
2022/02/08 03:53:47;;;;;;;4.55;2.10;;;;;;;2.62;71.45;98648.69;1792756;80;20930;-41
2022/02/08 03:56:20;;;;;;;2.35;1.65;;;;;;;2.61;71.37;98651.71;1778675;79;20989;-41
2022/02/08 03:58:47;;;;;;;3.22;2.30;;;;;;;2.59;71.26;98660.60;1767985;81;20990;-41
2022/02/08 04:03:58;;;;;;;9.60;4.62;;;;;;;2.48;71.45;98664.75;1768568;81;21595;-40
2022/02/08 04:06:13;;;;;;;5.22;3.10;;;;;;;2.47;71.56;98663.96;1764824;81;20992;-41
2022/02/08 04:08:39;;;;;;;4.53;2.60;;;;;;;2.48;71.43;98664.75;1787363;79;20898;-41
2022/02/08 04:11:08;;;;;;;4.62;2.10;;;;;;;2.46;71.39;98666.98;1797517;79;20993;-41
2022/02/08 04:13:45;;;;;;;3.90;1.70;;;;;;;2.44;71.43;98671.85;1800328;79;21076;-41
2022/02/08 04:16:22;;;;;;;3.72;1.87;;;;;;;2.44;71.32;98679.33;1797756;79;21128;-41
2022/02/08 04:32:26;;;;;;;5.33;2.10;;;;;;;2.31;71.24;98708.97;1802740;79;20913;-40
2022/02/08 04:35:01;;;;;;;4.40;1.90;;;;;;;2.28;71.13;98721.63;1799782;79;21512;-40
2022/02/08 04:40:35;;;;;;;5.03;1.62;;;;;;;2.21;71.29;98728.04;1799583;79;20922;-41
2022/02/08 04:43:00;;;;;;;3.33;1.87;;;;;;;2.19;71.32;98729.69;1791138;79;21204;-41
2022/02/08 04:48:02;;;;;;;3.87;2.00;;;;;;;2.15;71.32;98740.24;1737025;79;21503;-40
2022/02/08 04:50:18;;;;;;;4.37;2.55;;;;;;;2.15;71.30;98753.61;1796551;79;21045;-41
2022/02/08 04:52:44;;;;;;;7.90;2.33;;;;;;;2.15;71.16;98747.48;1799638;79;21048;-41
2022/02/08 04:57:56;;;;;;;5.17;2.60;;;;;;;2.12;71.09;98755.59;1799822;79;21550;-41
2022/02/08 05:00:29;;;;;;;4.47;1.75;;;;;;;2.10;71.01;98757.00;1799515;79;21073;-41
2022/02/08 05:48:43;;;;;;;5.90;1.85;;;;;;;2.16;69.92;98820.70;1757189;81;21904;-41
2022/02/08 05:51:12;;;;;;;4.78;2.00;;;;;;;2.20;69.71;98822.19;1749545;81;20993;-41
2022/02/08 05:53:44;;;;;;;4.35;2.00;;;;;;;2.21;69.60;98825.65;1763929;79;21021;-41
2022/02/08 05:56:10;;;;;;;6.55;2.37;;;;;;;2.22;69.47;98831.23;1717547;83;21086;-41
2022/02/08 05:58:37;;;;;;;4.05;1.92;;;;;;;2.24;69.34;98835.15;1796029;79;21473;-41
2022/02/08 06:01:04;;;;;;;5.92;2.08;;;;;;;2.26;69.11;98832.95;1795560;79;21146;-40
2022/02/08 06:03:35;;;;;;;4.40;1.85;;;;;;;2.25;68.90;98844.75;1717907;83;20947;-41
2022/02/08 06:06:05;;;;;;;;;;;;;;;2.25;68.82;98849.31;1762746;81;21413;-41
2022/02/08 06:08:31;;;;;;;5.42;2.25;;;;;;;2.29;68.60;98854.25;1781975;80;20186;-40
2022/02/08 06:11:03;;;;;;;4.72;2.10;;;;;;;2.17;68.53;98855.70;1707733;83;21478;-40
2022/02/08 06:13:30;;;;;;;4.63;2.00;;;;;;;2.19;68.49;98868.19;1784845;80;21592;-41
2022/02/08 06:16:06;;;;;;;3.55;1.90;;;;;;;2.22;68.40;98874.81;1784703;80;21029;-41
2022/02/08 06:18:29;;;;;;;4.95;2.15;;;;;;;2.28;68.30;98868.72;1783319;80;21022;-41
2022/02/08 06:20:57;;;;;;;6.15;2.47;;;;;;;2.29;67.91;98867.08;1784718;80;21058;-41
2022/02/08 06:23:25;;;;;;;3.85;1.92;;;;;;;2.32;68.04;98871.03;1716791;83;20970;-41
2022/02/08 06:25:52;;;;;;;3.83;2.17;;;;;;;2.37;67.79;98873.54;1717481;83;21136;-41
2022/02/08 06:28:21;;;;;;;3.12;2.00;;;;;;;2.02;67.51;98825.44;1795863;79;21017;-41
2022/02/08 06:30:47;;;;;;;3.30;1.87;;;;;;;2.39;67.20;98883.36;1717569;82;20988;-41
2022/02/08 06:33:14;;;;;;;3.95;2.00;;;;;;;2.38;67.16;98880.44;1791326;79;21053;-41
2022/02/08 06:35:42;;;;;;;3.87;2.05;;;;;;;2.39;67.07;98890.05;1776290;79;21049;-41
2022/02/08 06:38:12;;;;;;;4.80;2.30;;;;;;;2.41;66.99;98891.86;1784071;80;21108;-41
2022/02/08 06:40:40;;;;;;;6.35;2.52;;;;;;;2.40;67.02;98892.95;1785530;79;20942;-41
2022/02/08 06:43:07;;;;;;;4.47;2.22;;;;;;;2.44;66.98;98889.88;1773150;80;21540;-41
2022/02/08 06:45:33;;;;;;;4.15;1.80;;;;;;;2.48;66.85;98896.16;1768195;81;21049;-41
2022/02/08 06:48:02;;;;;;;3.22;1.87;;;;;;;2.54;66.57;98914.97;1790238;79;21001;-41
2022/02/08 06:50:30;;;;;;;3.95;1.92;;;;;;;2.58;66.31;98919.92;1789510;78;21441;-41
2022/02/08 06:52:56;;;;;;;2.35;1.70;;;;;;;2.56;66.24;98920.26;1784727;79;20916;-41
2022/02/08 06:55:28;;;;;;;2.77;1.57;;;;;;;2.59;66.28;98924.96;1783007;79;20980;-41
2022/02/08 06:58:05;;;;;;;3.87;1.60;;;;;;;2.62;65.75;98926.20;1798184;79;20993;-41
2022/02/08 07:00:37;;;;;;;3.98;1.70;;;;;;;2.60;65.57;98927.88;1799825;79;21076;-41
2022/02/08 07:03:04;;;;;;;3.02;1.80;;;;;;;2.59;65.61;98932.99;1794540;78;21071;-40
2022/02/08 07:05:31;;;;;;;2.55;1.80;;;;;;;2.61;65.71;98938.03;1785645;78;20981;-41
2022/02/08 07:07:59;;;;;;;5.83;2.17;;;;;;;2.66;65.77;98943.77;1769304;78;20930;-41
2022/02/08 07:10:27;;;;;;;4.35;2.30;;;;;;;2.71;65.44;98943.03;1769296;78;20941;-41
2022/02/08 07:12:55;;;;;;;3.55;2.10;;;;;;;2.75;65.38;98947.22;1787633;79;21084;-41
2022/02/08 07:15:22;;;;;;;6.53;2.50;;;;;;;2.79;65.30;98947.60;1772644;79;21129;-41
2022/02/08 07:17:50;;;;;;;3.37;2.15;;;;;;;2.83;64.95;98950.42;1761876;81;20930;-41
2022/02/08 07:20:17;;;;;;;4.45;2.08;;;;;;;2.89;64.57;98957.19;1727063;82;21669;-40
2022/02/08 07:22:44;;;;;;;5.78;1.92;;;;;;;2.89;63.90;98959.31;1722105;82;20957;-41
2022/02/08 07:25:11;;;;;;;4.70;1.82;;;;;;;2.88;64.12;98961.75;1722637;80;21022;-41
2022/02/08 07:27:40;;;;;;;2.92;1.70;;;;;;;2.86;63.57;98957.26;1743247;82;21108;-41
2022/02/08 07:30:12;;;;;;;3.72;1.50;;;;;;;2.85;62.93;98970.44;1729831;81;20945;-40
2022/02/08 07:32:41;;;;;;;2.60;1.80;;;;;;;2.82;62.70;98977.74;1729020;82;20985;-41
2022/02/08 07:43:02;;;;;;;2.27;1.32;;;;;;;2.77;61.80;98988.61;1697128;83;21539;-41
2022/02/08 07:45:31;;;;;;;4.50;2.05;;;;;;;2.82;61.41;98994.35;1702528;83;21028;-41
2022/02/08 07:47:57;;;;;;;3.87;1.77;;;;;;;2.83;60.99;98996.72;1718245;82;21847;-41
2022/02/08 07:50:25;;;;;;;2.98;1.57;;;;;;;2.82;60.50;99003.17;1713207;83;21539;-41
2022/02/08 07:52:53;;;;;;;4.25;1.50;;;;;;;2.78;60.23;99005.46;1713097;83;21391;-42
2022/02/08 07:55:21;;;;;;;3.98;1.60;;;;;;;2.76;59.89;99015.14;1713107;83;22070;-41
2022/02/08 07:57:48;;;;;;;2.52;1.65;;;;;;;2.77;60.59;99014.59;1728958;82;21599;-41
2022/02/08 08:00:16;;;;;;;6.25;1.62;;;;;;;2.81;59.50;99020.33;1735380;81;21041;-41
2022/02/08 08:02:44;;;;;;;2.62;1.27;;;;;;;2.82;59.61;99023.25;1681402;83;21081;-41
2022/02/08 08:05:11;;;;;;;3.60;1.47;;;;;;;2.84;59.46;99026.96;1711414;82;21148;-41
2022/02/08 08:07:39;;;;;;;3.47;1.42;;;;;;;2.84;59.06;99035.78;1742556;81;20985;-41
2022/02/08 08:10:11;;;;;;;3.58;1.67;;;;;;;2.86;59.60;99032.22;1742632;81;20937;-41
2022/02/08 08:12:46;;;;;;;2.37;1.40;;;;;;;2.90;59.39;99039.88;1742595;81;20977;-41
2022/02/08 08:15:23;;;;;;;3.70;1.60;;;;;;;2.93;58.88;99044.59;1741505;82;21006;-41
2022/02/08 08:18:14;;;;;;;2.22;1.35;;;;;;;2.94;58.63;99045.38;1739127;82;20977;-41
2022/02/08 08:20:26;;;;;;;3.00;1.50;;;;;;;2.99;59.17;99054.59;1722339;82;21681;-41
2022/02/08 08:22:54;;;;;;;3.80;1.10;;;;;;;2.99;57.74;99062.08;1723528;83;20978;-41
2022/02/08 08:25:20;;;;;;;1.75;1.00;;;;;;;3.01;58.02;99067.88;1713398;82;20980;-41
2022/02/08 08:27:47;;;;;;;2.05;1.20;;;;;;;3.03;58.04;99067.03;1713320;82;21054;-41
2022/02/08 08:30:14;;;;;;;5.33;1.30;;;;;;;3.08;57.87;99062.61;1713424;82;21910;-42
2022/02/08 08:32:42;;;;;;;3.15;1.12;;;;;;;3.13;57.94;99067.80;1713356;82;20985;-41
2022/02/08 08:35:11;;;;;;;3.65;1.55;;;;;;;3.19;57.74;99070.56;1743749;82;20946;-41
2022/02/08 08:37:42;;;;;;;4.22;1.45;;;;;;;3.22;57.21;99080.63;1742952;82;21049;-41
2022/02/08 08:40:17;;;;;;;2.90;1.37;;;;;;;3.21;57.45;99081.18;1742897;82;21018;-41
2022/02/08 08:42:46;;;;;;;3.62;1.32;;;;;;;3.24;57.25;99082.45;1741491;82;21503;-41
2022/02/08 08:48:30;;;;;;;3.00;1.55;;;;;;;3.28;57.53;99084.73;1734426;82;21546;-41
2022/02/08 08:53:08;;;;;;;4.97;2.15;;;;;;;3.28;54.55;99096.78;1715644;82;21544;-41
2022/02/08 08:55:35;;;;;;;4.42;2.17;;;;;;;3.20;55.27;99097.56;1736560;82;21102;-41
2022/02/08 08:59:41;;;;;;;7.55;2.50;;;;;;;3.13;55.75;99100.73;1796556;79;22767;-44
2022/02/08 09:02:08;;;;;;;7.75;2.42;;;;;;;3.05;55.83;99110.88;1741103;81;21004;-43
2022/02/08 09:04:40;;;;;;;4.85;1.80;;;;;;;3.04;55.96;99117.36;1756893;81;21776;-43
2022/02/08 09:07:04;;;;;;;3.85;2.00;;;;;;;3.05;56.27;99117.03;1756388;81;21004;-42
2022/02/08 09:09:34;;;;;;;3.67;1.60;;;;;;;3.09;56.45;99122.56;1756679;81;21006;-42
2022/02/08 09:12:24;;;;;;;1.98;1.40;;;;;;;3.18;56.35;99118.53;1756737;81;21286;-43
2022/02/08 09:15:10;;;;;;;2.27;1.40;;;;;;;3.23;56.37;99125.08;1755586;80;21828;-43
2022/02/08 09:17:56;;;;;;;1.77;1.25;;;;;;;3.27;56.21;99123.33;1743300;81;21202;-43
2022/02/08 09:20:29;;;;;;;3.25;1.30;;;;;;;3.29;56.32;99133.19;1724002;83;20937;-43
2022/02/08 09:23:11;;;;;;;2.47;1.22;;;;;;;3.35;56.63;99128.67;1759972;80;20893;-43
2022/02/08 09:31:05;;;;;;;3.62;1.40;;;;;;;3.47;55.76;99129.38;1694759;84;21595;-43
2022/02/08 09:33:31;;;;;;;2.60;1.20;;;;;;;3.43;55.30;99129.78;1713966;83;21099;-44
2022/02/08 09:35:57;;;;;;;3.58;1.37;;;;;;;3.43;55.80;99132.46;1694395;84;20948;-43
2022/02/08 09:38:30;;;;;;;2.35;1.30;;;;;;;3.42;55.89;99129.00;1698951;83;20968;-43
2022/02/08 09:40:52;;;;;;;4.30;1.85;;;;;;;3.44;56.23;99138.03;1722621;83;21024;-43
2022/02/08 09:43:20;;;;;;;2.02;1.30;;;;;;;3.44;55.76;99144.73;1723690;83;21084;-44
2022/02/08 09:45:48;;;;;;;2.98;1.62;;;;;;;3.45;56.22;99139.61;1722680;83;21572;-42
2022/02/08 09:48:29;;;;;;;2.98;1.32;;;;;;;3.44;56.21;99136.14;1685488;84;21614;-43
2022/02/08 09:50:51;;;;;;;2.55;1.52;;;;;;;3.43;56.35;99141.84;1700294;82;21059;-39
2022/02/08 09:53:31;;;;;;;4.22;1.80;;;;;;;3.41;55.43;99130.09;1720544;83;21108;-42
2022/02/08 09:55:52;;;;;;;4.28;1.82;;;;;;;3.38;56.26;99133.42;1717355;83;21298;-43
2022/02/08 11:07:58;;;;;;;5.35;2.42;;;;;;;3.65;54.10;99120.74;1746965;80;21064;-46
2022/02/08 11:10:26;;;;;;;6.30;2.62;;;;;;;3.71;54.42;99114.91;1742135;82;21601;-42
2022/02/08 11:19:11;;;;;;;6.42;2.80;;;;;;;3.77;54.08;99114.97;1721377;78;63224;-36
2022/02/08 11:21:46;;;;;;;4.62;1.98;;;;;;;3.83;54.39;99124.39;1683808;83;21612;-34
2022/02/08 11:24:38;;;;;;;4.80;2.30;;;;;;;3.81;52.85;99113.22;1677278;84;21018;-34
2022/02/08 11:27:02;;;;;;;6.12;2.40;;;;;;;3.85;52.72;99120.06;1642436;87;21122;-35
2022/02/08 11:29:41;;;;;;;5.70;2.50;;;;;;;3.81;53.51;99127.97;1555587;90;21158;-35
2022/02/08 11:32:08;;;;;;;5.67;2.90;;;;;;;3.80;53.34;99126.38;1586178;90;21026;-36
2022/02/08 11:46:22;;;;;;;4.45;1.90;;;;;;;3.69;53.25;99122.47;1644337;86;20975;-37
2022/02/08 11:48:51;;;;;;;2.17;1.20;;;;;;;3.66;53.08;99130.36;1685793;83;21511;-36
2022/02/08 11:51:46;;;;;;;4.83;1.70;;;;;;;3.66;52.61;99127.13;1669723;85;21100;-37
2022/02/08 12:05:51;;;;;;;2.22;1.10;;;;;;;3.70;52.96;99130.75;1630840;88;21604;-39
2022/02/08 12:07:37;;;;;;;2.45;1.37;;;;;;;3.75;52.26;99138.62;1652759;85;21105;-39
2022/02/08 12:10:41;;;;;;;3.47;1.20;;;;;;;3.81;52.27;99140.03;1677754;85;22057;-39
2022/02/08 12:34:47;;;;;;;3.67;1.50;;;;;;;3.66;51.88;99152.60;1671053;85;21040;-39
2022/02/08 12:56:10;;;;;;;3.15;1.30;;;;;;;3.51;52.82;99174.53;1686908;85;21021;-39
2022/02/08 13:01:59;;;;;;;3.80;1.57;;;;;;;3.54;52.68;99173.09;1684743;85;21045;-39
2022/02/08 13:14:30;;;;;;;2.95;1.80;;;;;;;3.52;52.77;99175.33;1684544;85;21111;-39
2022/02/08 13:18:38;;;;;;;4.60;1.57;;;;;;;3.56;52.69;99177.05;1684466;85;21867;-39
2022/02/08 14:08:18;;;;;;;4.35;1.90;;;;;;;2.70;53.77;99195.75;1684650;85;21085;-38
2022/02/08 14:16:10;;;;;;;3.52;1.92;;;;;;;2.73;54.86;99201.02;1689718;85;21327;-39
2022/02/08 14:31:58;;;;;;;4.87;1.80;;;;;;;2.70;54.70;99198.42;1646162;87;21045;-39
2022/02/08 15:09:53;;;;;;;5.87;2.30;;;;;;;2.60;55.86;99194.70;1646429;87;21117;-39
2022/02/08 15:12:17;;;;;;;8.23;2.10;;;;;;;2.61;55.85;99192.27;1686100;85;21021;-39
2022/02/08 15:14:50;;;;;;;4.85;2.22;;;;;;;2.63;55.64;99198.88;1686667;85;21073;-38
2022/02/08 15:17:14;;;;;;;5.15;2.15;;;;;;;2.62;55.68;99205.31;1684020;85;21231;-39
2022/02/08 15:19:43;;;;;;;5.22;2.10;;;;;;;2.61;55.85;99209.08;1684430;85;21557;-39
2022/02/08 15:22:10;;;;;;;4.58;1.90;;;;;;;2.63;55.58;99204.77;1687119;84;21013;-39
2022/02/08 15:24:37;;;;;;;5.65;2.00;;;;;;;2.62;55.72;99207.98;1656128;86;21007;-39
2022/02/08 15:27:05;;;;;;;5.83;2.25;;;;;;;2.63;55.88;99208.78;1653551;86;21057;-39
2022/02/08 15:29:33;;;;;;;4.85;2.50;;;;;;;2.64;55.92;99205.02;1674828;85;21898;-39
2022/02/08 15:32:01;;;;;;;6.47;2.65;;;;;;;2.65;55.88;99206.59;1674817;85;21045;-38
2022/02/08 15:34:29;;;;;;;4.47;2.60;;;;;;;2.64;55.73;99202.34;1674888;85;21001;-39
2022/02/08 15:36:55;;;;;;;9.30;2.98;;;;;;;2.62;55.78;99197.28;1675089;85;21781;-39
2022/02/08 15:39:22;;;;;;;6.75;2.65;;;;;;;2.60;55.86;99202.17;1675139;85;21034;-39
2022/02/08 15:41:49;;;;;;;6.08;2.83;;;;;;;2.62;55.90;99197.83;1675056;85;21143;-38
2022/02/08 15:44:22;;;;;;;5.45;3.00;;;;;;;2.62;55.82;99203.97;1675084;85;21499;-39
2022/02/08 15:46:48;;;;;;;6.72;3.05;;;;;;;2.62;55.71;99204.52;1674640;85;21053;-39
2022/02/08 15:49:17;;;;;;;7.67;2.95;;;;;;;2.62;55.73;99197.83;1661866;85;21009;-39
2022/02/08 15:51:46;;;;;;;8.23;3.20;;;;;;;2.61;55.79;99197.62;1662223;85;21077;-39
2022/02/08 16:07:33;;;;;;;7.70;3.95;;;;;;;2.56;55.78;99209.80;1679730;85;21195;-39
2022/02/08 16:10:05;;;;;;;7.67;3.52;;;;;;;2.53;55.75;99207.18;1678987;85;21509;-38
2022/02/08 16:18:03;;;;;;;5.50;2.92;;;;;;;2.49;55.76;99207.56;1679781;85;21100;-39
2022/02/08 16:20:39;;;;;;;9.88;3.45;;;;;;;2.48;55.94;99211.88;1681410;83;21144;-39
2022/02/08 16:26:03;;;;;;;6.50;3.47;;;;;;;2.46;56.06;99208.73;1718387;83;21028;-39
2022/02/08 16:31:32;;;;;;;6.42;3.62;;;;;;;2.42;56.21;99206.45;1659224;86;21024;-38
2022/02/08 16:52:43;;;;;;;8.75;4.60;;;;;;;2.16;58.20;99207.11;1684559;84;20990;-39
2022/02/08 16:55:12;;;;;;;9.73;4.70;;;;;;;2.11;58.50;99209.92;1679509;85;21002;-39
2022/02/08 16:59:53;;;;;;;11.10;5.30;;;;;;;1.97;59.35;99207.88;1684452;85;21909;-39
2022/02/08 17:02:22;;;;;;;9.63;4.90;;;;;;;1.97;59.58;99208.42;1684596;85;21514;-39
2022/02/08 17:04:48;;;;;;;7.17;4.35;;;;;;;1.97;59.72;99209.22;1684644;85;21550;-39
2022/02/08 17:07:16;;;;;;;10.50;4.50;;;;;;;1.96;59.79;99206.30;1684533;85;21636;-38
2022/02/08 17:12:26;;;;;;;8.40;3.90;;;;;;;1.94;60.24;99209.02;1684330;85;21120;-38
2022/02/08 17:18:04;;;;;;;8.18;3.05;;;;;;;1.94;60.76;99215.70;1656729;86;21533;-39
2022/02/08 17:47:40;;;;;;;8.93;3.92;;;;;;;1.98;62.06;99212.14;1681298;84;20958;-39
2022/02/08 17:50:02;;;;;;;7.15;3.80;;;;;;;2.03;62.01;99214.66;1679757;85;21054;-39
2022/02/08 17:52:30;;;;;;;9.00;4.45;;;;;;;2.07;62.03;99211.63;1681387;84;22414;-39
2022/02/08 17:54:57;;;;;;;7.78;3.98;;;;;;;2.12;62.18;99206.16;1681090;85;20981;-39
2022/02/08 17:57:23;;;;;;;7.30;3.75;;;;;;;2.15;62.26;99211.42;1681111;85;21013;-39
2022/02/08 17:59:50;;;;;;;8.38;3.87;;;;;;;2.17;62.43;99202.02;1681064;84;21543;-39
2022/02/08 18:02:16;;;;;;;8.90;4.45;;;;;;;2.20;62.47;99205.95;1681253;85;21065;-39
2022/02/08 18:04:46;;;;;;;8.40;4.55;;;;;;;2.21;62.59;99205.40;1678767;84;21834;-39
2022/02/08 18:07:17;;;;;;;9.35;4.22;;;;;;;2.19;62.85;99205.16;1656775;86;21021;-39
2022/02/08 18:09:41;;;;;;;7.87;4.03;;;;;;;2.18;63.22;99200.89;1656785;85;21100;-39
2022/02/08 18:12:09;;;;;;;9.83;4.15;;;;;;;2.19;63.54;99201.69;1656895;86;21096;-39
2022/02/08 18:14:36;;;;;;;11.25;4.92;;;;;;;2.16;63.80;99197.75;1656789;86;21061;-39
2022/02/08 18:17:10;;;;;;;10.75;4.58;;;;;;;2.13;64.38;99195.67;1680452;85;21163;-39
2022/02/08 18:19:37;;;;;;;9.30;4.35;;;;;;;2.10;64.67;99197.64;1684538;85;20969;-39
2022/02/08 18:25:56;;;;;;;9.75;4.67;;;;;;;2.10;65.25;99202.98;1710765;83;21490;-39
2022/02/08 18:27:42;;;;;;;11.30;5.17;;;;;;;2.07;65.47;99192.92;1646680;85;21052;-39
2022/02/08 18:57:40;;;;;;;11.93;5.58;;;;;;;1.96;67.36;99171.55;1647485;87;21166;-39
2022/02/08 19:13:51;;;;;;;17.05;6.50;;;;;;;1.92;68.09;99159.89;1684267;85;20986;-39
2022/02/08 19:16:14;;;;;;;12.60;6.10;;;;;;;1.90;68.18;99156.72;1674895;85;21049;-39
2022/02/08 19:23:50;;;;;;;14.00;6.65;;;;;;;1.87;68.37;99150.66;1629433;88;21181;-39
2022/02/08 19:26:17;;;;;;;15.80;6.92;;;;;;;1.87;68.43;99152.00;1632662;87;21042;-39
2022/02/08 19:28:45;;;;;;;14.65;7.28;;;;;;;1.89;68.44;99143.69;1643739;87;21066;-39
2022/02/08 19:31:12;;;;;;;14.87;7.10;;;;;;;1.88;68.44;99141.56;1643861;87;21281;-39
2022/02/08 19:33:40;;;;;;;16.50;7.80;;;;;;;1.89;68.52;99139.10;1644043;87;21056;-39
2022/02/08 19:36:06;;;;;;;19.62;7.78;;;;;;;1.88;68.62;99141.56;1643805;87;21175;-39
2022/02/08 19:38:38;;;;;;;12.68;6.05;;;;;;;1.88;68.55;99142.89;1643915;87;20975;-39
2022/02/08 19:41:01;;;;;;;14.55;6.78;;;;;;;1.85;68.54;99136.80;1643537;87;21494;-39
2022/02/08 19:43:28;;;;;;;14.53;6.42;;;;;;;1.83;68.63;99135.01;1643621;87;21066;-40
2022/02/08 19:45:55;;;;;;;11.40;5.72;;;;;;;1.81;68.66;99136.39;1643725;87;21016;-39
2022/02/08 19:48:22;;;;;;;17.42;6.30;;;;;;;1.77;68.61;99133.55;1643577;87;21093;-39
2022/02/08 19:50:49;;;;;;;14.03;6.15;;;;;;;1.73;68.62;99141.41;1643824;87;21541;-39
2022/02/08 19:53:16;;;;;;;13.80;6.45;;;;;;;1.68;68.67;99130.05;1643630;87;20999;-39
2022/02/08 19:58:21;;;;;;;15.50;6.25;;;;;;;1.66;68.74;99140.23;1643701;87;21095;-39
2022/02/08 20:00:45;;;;;;;18.55;6.80;;;;;;;1.63;68.83;99140.86;1674406;85;21159;-39
2022/02/08 20:03:11;;;;;;;18.80;7.30;;;;;;;1.62;68.98;99137.40;1674342;85;20978;-39
2022/02/08 20:05:38;;;;;;;14.20;6.08;;;;;;;1.63;69.03;99138.19;1674276;85;21089;-39